sensor_id;sensor_type;location;lat;lon;timestamp;pressure;altitude;pressure_sealevel;temperature;humidity
41945;BME280;63122;52.424;13.458;2023-02-21T00:01:40;100624.28;;;7.74;100.00
41945;BME280;63122;52.424;13.458;2023-02-21T00:03:47;100628.69;;;7.74;100.00
41945;BME280;63122;52.424;13.458;2023-02-21T00:05:55;100621.94;;;7.71;100.00
41945;BME280;63122;52.424;13.458;2023-02-21T00:08:07;100631.84;;;7.68;100.00
41945;BME280;63122;52.424;13.458;2023-02-21T00:10:18;100625.06;;;7.65;100.00
41945;BME280;63122;52.424;13.458;2023-02-21T00:12:25;100631.44;;;7.62;100.00
41945;BME280;63122;52.424;13.458;2023-02-21T00:14:35;100616.75;;;7.60;100.00
41945;BME280;63122;52.424;13.458;2023-02-21T00:16:43;100630.59;;;7.62;100.00
41945;BME280;63122;52.424;13.458;2023-02-21T00:18:50;100620.94;;;7.62;100.00
41945;BME280;63122;52.424;13.458;2023-02-21T00:20:58;100622.84;;;7.60;100.00
41945;BME280;63122;52.424;13.458;2023-02-21T00:23:06;100605.03;;;7.64;100.00
41945;BME280;63122;52.424;13.458;2023-02-21T00:25:14;100623.28;;;7.66;100.00
41945;BME280;63122;52.424;13.458;2023-02-21T00:27:24;100582.25;;;7.64;100.00
41945;BME280;63122;52.424;13.458;2023-02-21T00:29:32;100584.97;;;7.63;100.00
41945;BME280;63122;52.424;13.458;2023-02-21T00:31:40;100603.09;;;7.66;100.00
41945;BME280;63122;52.424;13.458;2023-02-21T00:33:47;100609.59;;;7.62;100.00
41945;BME280;63122;52.424;13.458;2023-02-21T00:35:55;100594.78;;;7.61;100.00
41945;BME280;63122;52.424;13.458;2023-02-21T00:38:03;100613.59;;;7.56;100.00
41945;BME280;63122;52.424;13.458;2023-02-21T00:40:13;100611.09;;;7.55;100.00
41945;BME280;63122;52.424;13.458;2023-02-21T00:42:23;100603.59;;;7.50;100.00
41945;BME280;63122;52.424;13.458;2023-02-21T00:44:31;100601.94;;;7.49;100.00
41945;BME280;63122;52.424;13.458;2023-02-21T00:46:39;100595.19;;;7.46;100.00
41945;BME280;63122;52.424;13.458;2023-02-21T00:48:46;100581.09;;;7.47;100.00
41945;BME280;63122;52.424;13.458;2023-02-21T00:50:54;100585.66;;;7.45;100.00
41945;BME280;63122;52.424;13.458;2023-02-21T00:53:01;100589.94;;;7.46;100.00
41945;BME280;63122;52.424;13.458;2023-02-21T00:55:09;100601.41;;;7.45;100.00
41945;BME280;63122;52.424;13.458;2023-02-21T00:57:17;100591.59;;;7.47;100.00
41945;BME280;63122;52.424;13.458;2023-02-21T00:59:27;100589.78;;;7.48;100.00
41945;BME280;63122;52.424;13.458;2023-02-21T01:01:35;100601.25;;;7.47;100.00
41945;BME280;63122;52.424;13.458;2023-02-21T01:03:43;100595.88;;;7.48;100.00
41945;BME280;63122;52.424;13.458;2023-02-21T01:05:52;100591.44;;;7.49;100.00
41945;BME280;63122;52.424;13.458;2023-02-21T01:08:00;100571.41;;;7.48;100.00
41945;BME280;63122;52.424;13.458;2023-02-21T01:10:08;100615.22;;;7.47;100.00
41945;BME280;63122;52.424;13.458;2023-02-21T01:12:15;100574.88;;;7.48;100.00
41945;BME280;63122;52.424;13.458;2023-02-21T01:14:23;100573.06;;;7.49;100.00
41945;BME280;63122;52.424;13.458;2023-02-21T01:16:33;100595.72;;;7.50;100.00
41945;BME280;63122;52.424;13.458;2023-02-21T01:18:41;100574.72;;;7.50;100.00
41945;BME280;63122;52.424;13.458;2023-02-21T01:20:49;100588.97;;;7.47;100.00
41945;BME280;63122;52.424;13.458;2023-02-21T01:22:56;100566.03;;;7.49;100.00
41945;BME280;63122;52.424;13.458;2023-02-21T01:27:34;100565.63;;;7.54;100.00
41945;BME280;63122;52.424;13.458;2023-02-21T01:29:42;100564.69;;;7.55;100.00
41945;BME280;63122;52.424;13.458;2023-02-21T01:31:53;100570.03;;;7.54;100.00
41945;BME280;63122;52.424;13.458;2023-02-21T01:34:01;100552.53;;;7.54;100.00
41945;BME280;63122;52.424;13.458;2023-02-21T01:36:10;100568.97;;;7.56;100.00
41945;BME280;63122;52.424;13.458;2023-02-21T01:38:18;100556.53;;;7.58;100.00
41945;BME280;63122;52.424;13.458;2023-02-21T01:40:38;100564.25;;;7.60;100.00
41945;BME280;63122;52.424;13.458;2023-02-21T01:42:46;100573.78;;;7.61;100.00
41945;BME280;63122;52.424;13.458;2023-02-21T01:45:36;100552.66;;;7.62;100.00
41945;BME280;63122;52.424;13.458;2023-02-21T01:47:47;100567.56;;;7.62;100.00
41945;BME280;63122;52.424;13.458;2023-02-21T01:49:56;100572.69;;;7.63;100.00
41945;BME280;63122;52.424;13.458;2023-02-21T01:52:04;100558.22;;;7.69;100.00
41945;BME280;63122;52.424;13.458;2023-02-21T01:54:16;100553.94;;;7.68;100.00
41945;BME280;63122;52.424;13.458;2023-02-21T01:56:25;100547.72;;;7.69;100.00
41945;BME280;63122;52.424;13.458;2023-02-21T01:58:33;100569.41;;;7.71;100.00
41945;BME280;63122;52.424;13.458;2023-02-21T02:00:42;100553.50;;;7.73;100.00
41945;BME280;63122;52.424;13.458;2023-02-21T02:02:56;100551.16;;;7.80;100.00
41945;BME280;63122;52.424;13.458;2023-02-21T02:05:06;100551.75;;;7.83;100.00
41945;BME280;63122;52.424;13.458;2023-02-21T02:07:15;100556.16;;;7.83;100.00
41945;BME280;63122;52.424;13.458;2023-02-21T02:09:23;100547.31;;;7.84;100.00
41945;BME280;63122;52.424;13.458;2023-02-21T02:11:42;100547.19;;;7.85;100.00
41945;BME280;63122;52.424;13.458;2023-02-21T02:14:05;100548.00;;;7.86;100.00
41945;BME280;63122;52.424;13.458;2023-02-21T02:16:06;100549.38;;;7.90;100.00
41945;BME280;63122;52.424;13.458;2023-02-21T02:20:50;100543.72;;;7.95;100.00
41945;BME280;63122;52.424;13.458;2023-02-21T02:23:07;100527.84;;;7.96;100.00
41945;BME280;63122;52.424;13.458;2023-02-21T02:25:16;100522.16;;;8.01;100.00
41945;BME280;63122;52.424;13.458;2023-02-21T02:30:10;100519.13;;;8.05;100.00
41945;BME280;63122;52.424;13.458;2023-02-21T02:32:27;100530.16;;;8.09;100.00
41945;BME280;63122;52.424;13.458;2023-02-21T02:34:54;100531.28;;;8.16;100.00
41945;BME280;63122;52.424;13.458;2023-02-21T02:36:52;100513.84;;;8.15;100.00
41945;BME280;63122;52.424;13.458;2023-02-21T02:38:58;100505.69;;;8.18;100.00
41945;BME280;63122;52.424;13.458;2023-02-21T02:40:58;100508.03;;;8.21;100.00
41945;BME280;63122;52.424;13.458;2023-02-21T02:43:02;100503.75;;;8.20;100.00
41945;BME280;63122;52.424;13.458;2023-02-21T02:45:06;100502.78;;;8.21;100.00
41945;BME280;63122;52.424;13.458;2023-02-21T02:47:09;100503.75;;;8.20;100.00
41945;BME280;63122;52.424;13.458;2023-02-21T02:49:07;100503.59;;;8.22;100.00
41945;BME280;63122;52.424;13.458;2023-02-21T02:51:07;100516.34;;;8.17;100.00
41945;BME280;63122;52.424;13.458;2023-02-21T02:53:03;100521.88;;;8.14;100.00
41945;BME280;63122;52.424;13.458;2023-02-21T02:55:00;100517.59;;;8.13;100.00
41945;BME280;63122;52.424;13.458;2023-02-21T02:56:55;100519.66;;;8.09;100.00
41945;BME280;63122;52.424;13.458;2023-02-21T02:58:53;100527.69;;;8.07;100.00
41945;BME280;63122;52.424;13.458;2023-02-21T03:00:56;100520.91;;;8.05;100.00
41945;BME280;63122;52.424;13.458;2023-02-21T03:03:24;100530.72;;;8.03;100.00
41945;BME280;63122;52.424;13.458;2023-02-21T03:05:35;100523.13;;;8.10;100.00
41945;BME280;63122;52.424;13.458;2023-02-21T03:07:40;100523.97;;;8.10;100.00
41945;BME280;63122;52.424;13.458;2023-02-21T03:09:47;100512.31;;;8.13;100.00
41945;BME280;63122;52.424;13.458;2023-02-21T03:11:54;100507.47;;;8.18;100.00
41945;BME280;63122;52.424;13.458;2023-02-21T03:13:55;100501.13;;;8.20;100.00
41945;BME280;63122;52.424;13.458;2023-02-21T03:15:56;100498.34;;;8.22;100.00
41945;BME280;63122;52.424;13.458;2023-02-21T03:17:58;100516.75;;;8.22;100.00
41945;BME280;63122;52.424;13.458;2023-02-21T03:19:56;100502.78;;;8.21;100.00
41945;BME280;63122;52.424;13.458;2023-02-21T03:21:56;100496.28;;;8.26;100.00
41945;BME280;63122;52.424;13.458;2023-02-21T03:23:57;100502.38;;;8.26;100.00
41945;BME280;63122;52.424;13.458;2023-02-21T03:25:56;100494.72;;;8.33;100.00
41945;BME280;63122;52.424;13.458;2023-02-21T03:27:53;100486.56;;;8.36;100.00
41945;BME280;63122;52.424;13.458;2023-02-21T03:29:51;100491.81;;;8.36;100.00
41945;BME280;63122;52.424;13.458;2023-02-21T03:31:53;100473.16;;;8.39;100.00
41945;BME280;63122;52.424;13.458;2023-02-21T03:33:52;100497.22;;;8.44;100.00
41945;BME280;63122;52.424;13.458;2023-02-21T03:36:13;100499.00;;;8.44;100.00
41945;BME280;63122;52.424;13.458;2023-02-21T03:38:11;100488.66;;;8.42;100.00
41945;BME280;63122;52.424;13.458;2023-02-21T03:40:24;100482.13;;;8.46;100.00
41945;BME280;63122;52.424;13.458;2023-02-21T03:42:23;100492.78;;;8.45;100.00
41945;BME280;63122;52.424;13.458;2023-02-21T03:44:18;100495.13;;;8.48;100.00
41945;BME280;63122;52.424;13.458;2023-02-21T03:46:14;100490.69;;;8.48;100.00
41945;BME280;63122;52.424;13.458;2023-02-21T03:48:09;100514.50;;;8.47;100.00
41945;BME280;63122;52.424;13.458;2023-02-21T03:50:14;100508.25;;;8.48;100.00
41945;BME280;63122;52.424;13.458;2023-02-21T03:52:11;100504.66;;;8.49;100.00
41945;BME280;63122;52.424;13.458;2023-02-21T03:54:06;100515.09;;;8.50;100.00
41945;BME280;63122;52.424;13.458;2023-02-21T03:56:04;100490.56;;;8.50;100.00
41945;BME280;63122;52.424;13.458;2023-02-21T03:57:59;100493.75;;;8.54;100.00
41945;BME280;63122;52.424;13.458;2023-02-21T03:59:55;100497.22;;;8.54;100.00
41945;BME280;63122;52.424;13.458;2023-02-21T04:01:50;100504.16;;;8.55;100.00
41945;BME280;63122;52.424;13.458;2023-02-21T04:03:45;100506.63;;;8.57;100.00
41945;BME280;63122;52.424;13.458;2023-02-21T04:05:40;100504.84;;;8.57;100.00
41945;BME280;63122;52.424;13.458;2023-02-21T04:07:36;100507.19;;;8.60;100.00
41945;BME280;63122;52.424;13.458;2023-02-21T04:09:31;100525.03;;;8.57;100.00
41945;BME280;63122;52.424;13.458;2023-02-21T04:11:29;100511.06;;;8.56;100.00
41945;BME280;63122;52.424;13.458;2023-02-21T04:13:25;100514.38;;;8.58;100.00
41945;BME280;63122;52.424;13.458;2023-02-21T04:15:20;100530.00;;;8.60;100.00
41945;BME280;63122;52.424;13.458;2023-02-21T04:17:15;100514.50;;;8.57;100.00
41945;BME280;63122;52.424;13.458;2023-02-21T04:19:10;100510.78;;;8.59;100.00
41945;BME280;63122;52.424;13.458;2023-02-21T04:21:06;100525.72;;;8.59;100.00
41945;BME280;63122;52.424;13.458;2023-02-21T04:23:01;100507.84;;;8.62;100.00
41945;BME280;63122;52.424;13.458;2023-02-21T04:24:56;100513.53;;;8.58;100.00
41945;BME280;63122;52.424;13.458;2023-02-21T04:26:54;100525.41;;;8.62;100.00
41945;BME280;63122;52.424;13.458;2023-02-21T04:28:50;100520.16;;;8.62;100.00
41945;BME280;63122;52.424;13.458;2023-02-21T04:30:45;100509.94;;;8.59;100.00
41945;BME280;63122;52.424;13.458;2023-02-21T04:32:40;100530.00;;;8.60;100.00
41945;BME280;63122;52.424;13.458;2023-02-21T04:34:35;100531.66;;;8.61;100.00
41945;BME280;63122;52.424;13.458;2023-02-21T04:36:30;100532.63;;;8.60;100.00
41945;BME280;63122;52.424;13.458;2023-02-21T04:38:26;100528.50;;;8.57;100.00
41945;BME280;63122;52.424;13.458;2023-02-21T04:40:21;100539.13;;;8.56;100.00
41945;BME280;63122;52.424;13.458;2023-02-21T04:42:19;100539.00;;;8.57;100.00
41945;BME280;63122;52.424;13.458;2023-02-21T04:44:14;100530.44;;;8.55;100.00
41945;BME280;63122;52.424;13.458;2023-02-21T04:46:10;100530.28;;;8.57;100.00
41945;BME280;63122;52.424;13.458;2023-02-21T04:48:07;100526.16;;;8.54;100.00
41945;BME280;63122;52.424;13.458;2023-02-21T04:50:03;100533.88;;;8.46;100.00
41945;BME280;63122;52.424;13.458;2023-02-21T04:51:58;100530.28;;;8.37;100.00
41945;BME280;63122;52.424;13.458;2023-02-21T04:53:54;100531.97;;;8.38;100.00
41945;BME280;63122;52.424;13.458;2023-02-21T04:55:49;100529.06;;;8.41;100.00
41945;BME280;63122;52.424;13.458;2023-02-21T04:57:47;100542.03;;;8.33;100.00
41945;BME280;63122;52.424;13.458;2023-02-21T04:59:42;100539.97;;;8.27;100.00
41945;BME280;63122;52.424;13.458;2023-02-21T05:01:37;100524.38;;;8.25;100.00
41945;BME280;63122;52.424;13.458;2023-02-21T05:03:32;100538.72;;;8.31;100.00
41945;BME280;63122;52.424;13.458;2023-02-21T05:05:27;100553.97;;;8.27;100.00
41945;BME280;63122;52.424;13.458;2023-02-21T05:07:23;100538.59;;;8.23;100.00
41945;BME280;63122;52.424;13.458;2023-02-21T05:09:18;100544.41;;;8.16;100.00
41945;BME280;63122;52.424;13.458;2023-02-21T05:11:14;100538.31;;;8.16;100.00
41945;BME280;63122;52.424;13.458;2023-02-21T05:13:11;100546.09;;;8.17;100.00
41945;BME280;63122;52.424;13.458;2023-02-21T05:15:08;100542.75;;;8.15;100.00
41945;BME280;63122;52.424;13.458;2023-02-21T05:17:03;100554.38;;;8.13;100.00
41945;BME280;63122;52.424;13.458;2023-02-21T05:18:59;100545.66;;;8.12;100.00
41945;BME280;63122;52.424;13.458;2023-02-21T05:20:54;100550.78;;;8.14;100.00
41945;BME280;63122;52.424;13.458;2023-02-21T05:22:50;100551.63;;;8.14;100.00
41945;BME280;63122;52.424;13.458;2023-02-21T05:24:49;100546.38;;;8.14;100.00
41945;BME280;63122;52.424;13.458;2023-02-21T05:26:44;100546.63;;;8.11;100.00
41945;BME280;63122;52.424;13.458;2023-02-21T05:28:42;100548.44;;;8.11;100.00
41945;BME280;63122;52.424;13.458;2023-02-21T05:30:38;100544.97;;;8.10;100.00
41945;BME280;63122;52.424;13.458;2023-02-21T05:32:33;100546.78;;;8.19;100.00
41945;BME280;63122;52.424;13.458;2023-02-21T05:34:29;100545.66;;;8.12;100.00
41945;BME280;63122;52.424;13.458;2023-02-21T05:36:24;100548.31;;;8.12;100.00
41945;BME280;63122;52.424;13.458;2023-02-21T05:38:21;100566.25;;;8.07;100.00
41945;BME280;63122;52.424;13.458;2023-02-21T05:40:17;100549.53;;;8.08;100.00
41945;BME280;63122;52.424;13.458;2023-02-21T05:42:14;100555.22;;;8.03;100.00
41945;BME280;63122;52.424;13.458;2023-02-21T05:44:12;100557.00;;;8.03;100.00
41945;BME280;63122;52.424;13.458;2023-02-21T05:46:07;100565.84;;;8.02;100.00
41945;BME280;63122;52.424;13.458;2023-02-21T05:48:09;100557.16;;;8.01;100.00
41945;BME280;63122;52.424;13.458;2023-02-21T05:50:05;100566.81;;;8.01;100.00
41945;BME280;63122;52.424;13.458;2023-02-21T05:52:01;100572.50;;;7.96;100.00
41945;BME280;63122;52.424;13.458;2023-02-21T05:53:56;100567.25;;;7.96;100.00
41945;BME280;63122;52.424;13.458;2023-02-21T05:55:52;100577.03;;;7.94;100.00
41945;BME280;63122;52.424;13.458;2023-02-21T05:57:47;100571.22;;;7.90;100.00
41945;BME280;63122;52.424;13.458;2023-02-21T05:59:46;100578.28;;;7.90;100.00
41945;BME280;63122;52.424;13.458;2023-02-21T06:01:41;100575.91;;;7.87;100.00
41945;BME280;63122;52.424;13.458;2023-02-21T06:03:37;100576.88;;;7.86;100.00
41945;BME280;63122;52.424;13.458;2023-02-21T06:05:32;100590.97;;;7.85;100.00
41945;BME280;63122;52.424;13.458;2023-02-21T06:07:28;100590.16;;;7.84;100.00
41945;BME280;63122;52.424;13.458;2023-02-21T06:09:23;100599.44;;;7.88;100.00
41945;BME280;63122;52.424;13.458;2023-02-21T06:11:23;100596.13;;;7.86;100.00
41945;BME280;63122;52.424;13.458;2023-02-21T06:13:19;100600.91;;;7.81;100.00
41945;BME280;63122;52.424;13.458;2023-02-21T06:15:17;100593.03;;;7.81;100.00
41945;BME280;63122;52.424;13.458;2023-02-21T06:17:13;100599.81;;;7.84;100.00
41945;BME280;63122;52.424;13.458;2023-02-21T06:19:09;100599.53;;;7.77;100.00
41945;BME280;63122;52.424;13.458;2023-02-21T06:21:05;100608.25;;;7.77;100.00
41945;BME280;63122;52.424;13.458;2023-02-21T06:23:01;100610.72;;;7.79;100.00
41945;BME280;63122;52.424;13.458;2023-02-21T06:24:56;100611.69;;;7.78;100.00
41945;BME280;63122;52.424;13.458;2023-02-21T06:26:52;100614.03;;;7.81;100.00
41945;BME280;63122;52.424;13.458;2023-02-21T06:28:47;100618.75;;;7.77;100.00
41945;BME280;63122;52.424;13.458;2023-02-21T06:30:46;100615.28;;;7.77;100.00
41945;BME280;63122;52.424;13.458;2023-02-21T06:32:42;100626.91;;;7.74;100.00
41945;BME280;63122;52.424;13.458;2023-02-21T06:34:37;100623.44;;;7.74;100.00
41945;BME280;63122;52.424;13.458;2023-02-21T06:36:32;100630.50;;;7.73;100.00
41945;BME280;63122;52.424;13.458;2023-02-21T06:38:27;100624.13;;;7.76;100.00
41945;BME280;63122;52.424;13.458;2023-02-21T06:40:23;100634.50;;;7.77;100.00
41945;BME280;63122;52.424;13.458;2023-02-21T06:42:18;100621.22;;;7.79;100.00
41945;BME280;63122;52.424;13.458;2023-02-21T06:44:14;100629.25;;;7.77;100.00
41945;BME280;63122;52.424;13.458;2023-02-21T06:46:14;100639.50;;;7.81;100.00
41945;BME280;63122;52.424;13.458;2023-02-21T06:48:13;100635.78;;;7.83;100.00
41945;BME280;63122;52.424;13.458;2023-02-21T06:50:08;100646.03;;;7.86;100.00
41945;BME280;63122;52.424;13.458;2023-02-21T06:52:04;100644.88;;;7.79;100.00
41945;BME280;63122;52.424;13.458;2023-02-21T06:53:59;100651.94;;;7.78;100.00
41945;BME280;63122;52.424;13.458;2023-02-21T06:55:55;100655.38;;;7.79;100.00
41945;BME280;63122;52.424;13.458;2023-02-21T06:57:50;100656.75;;;7.73;100.00
41945;BME280;63122;52.424;13.458;2023-02-21T06:59:45;100650.66;;;7.73;100.00
41945;BME280;63122;52.424;13.458;2023-02-21T07:01:43;100664.63;;;7.73;100.00
41945;BME280;63122;52.424;13.458;2023-02-21T07:03:39;100668.78;;;7.76;100.00
41945;BME280;63122;52.424;13.458;2023-02-21T07:05:35;100670.44;;;7.77;100.00
41945;BME280;63122;52.424;13.458;2023-02-21T07:07:30;100680.25;;;7.75;100.00
41945;BME280;63122;52.424;13.458;2023-02-21T07:09:25;100678.19;;;7.78;100.00
41945;BME280;63122;52.424;13.458;2023-02-21T07:11:20;100690.75;;;7.75;100.00
41945;BME280;63122;52.424;13.458;2023-02-21T07:13:18;100688.00;;;7.76;100.00
41945;BME280;63122;52.424;13.458;2023-02-21T07:15:13;100696.69;;;7.77;100.00
41945;BME280;63122;52.424;13.458;2023-02-21T07:17:13;100697.13;;;7.72;100.00
41945;BME280;63122;52.424;13.458;2023-02-21T07:19:08;100697.53;;;7.77;100.00
41945;BME280;63122;52.424;13.458;2023-02-21T07:21:08;100702.66;;;7.79;100.00
41945;BME280;63122;52.424;13.458;2023-02-21T07:23:03;100709.00;;;7.76;100.00
41945;BME280;63122;52.424;13.458;2023-02-21T07:24:58;100714.81;;;7.80;100.00
41945;BME280;63122;52.424;13.458;2023-02-21T07:26:54;100704.56;;;7.77;100.00
41945;BME280;63122;52.424;13.458;2023-02-21T07:28:49;100716.88;;;7.76;100.00
41945;BME280;63122;52.424;13.458;2023-02-21T07:30:45;100712.72;;;7.74;100.00
41945;BME280;63122;52.424;13.458;2023-02-21T07:32:43;100709.81;;;7.77;100.00
41945;BME280;63122;52.424;13.458;2023-02-21T07:34:39;100717.44;;;7.80;100.00
41945;BME280;63122;52.424;13.458;2023-02-21T07:36:36;100725.72;;;7.75;100.00
41945;BME280;63122;52.424;13.458;2023-02-21T07:38:31;100730.84;;;7.77;100.00
41945;BME280;63122;52.424;13.458;2023-02-21T07:40:26;100737.19;;;7.74;100.00
41945;BME280;63122;52.424;13.458;2023-02-21T07:42:22;100732.13;;;7.83;100.00
41945;BME280;63122;52.424;13.458;2023-02-21T07:44:18;100745.09;;;7.74;100.00
41945;BME280;63122;52.424;13.458;2023-02-21T07:46:15;100734.00;;;7.71;100.00
41945;BME280;63122;52.424;13.458;2023-02-21T07:48:13;100726.97;;;7.71;100.00
41945;BME280;63122;52.424;13.458;2023-02-21T07:50:09;100727.94;;;7.80;100.00
41945;BME280;63122;52.424;13.458;2023-02-21T07:52:04;100732.81;;;7.85;100.00
41945;BME280;63122;52.424;13.458;2023-02-21T07:54:00;100732.50;;;7.78;100.00
41945;BME280;63122;52.424;13.458;2023-02-21T07:55:55;100731.56;;;7.89;100.00
41945;BME280;63122;52.424;13.458;2023-02-21T07:57:51;100745.13;;;7.84;100.00
41945;BME280;63122;52.424;13.458;2023-02-21T07:59:46;100736.28;;;7.85;100.00
41945;BME280;63122;52.424;13.458;2023-02-21T08:01:45;100735.59;;;7.83;100.00
41945;BME280;63122;52.424;13.458;2023-02-21T08:03:42;100734.47;;;7.86;100.00
41945;BME280;63122;52.424;13.458;2023-02-21T08:05:38;100735.44;;;7.85;100.00
41945;BME280;63122;52.424;13.458;2023-02-21T08:07:33;100740.69;;;7.85;100.00
41945;BME280;63122;52.424;13.458;2023-02-21T08:09:31;100735.88;;;7.90;100.00
41945;BME280;63122;52.424;13.458;2023-02-21T08:11:27;100741.56;;;7.95;100.00
41945;BME280;63122;52.424;13.458;2023-02-21T08:13:23;100749.44;;;7.95;100.00
41945;BME280;63122;52.424;13.458;2023-02-21T08:15:19;100753.47;;;7.99;100.00
41945;BME280;63122;52.424;13.458;2023-02-21T08:17:14;100745.72;;;7.98;100.00
41945;BME280;63122;52.424;13.458;2023-02-21T08:19:12;100751.66;;;8.00;100.00
41945;BME280;63122;52.424;13.458;2023-02-21T08:21:08;100753.38;;;8.11;100.00
41945;BME280;63122;52.424;13.458;2023-02-21T08:23:04;100758.19;;;8.05;100.00
41945;BME280;63122;52.424;13.458;2023-02-21T08:24:59;100756.53;;;8.04;100.00
41945;BME280;63122;52.424;13.458;2023-02-21T08:26:55;100770.75;;;8.02;100.00
41945;BME280;63122;52.424;13.458;2023-02-21T08:28:53;100764.28;;;8.06;100.00
41945;BME280;63122;52.424;13.458;2023-02-21T08:30:49;100766.19;;;8.04;100.00
41945;BME280;63122;52.424;13.458;2023-02-21T08:32:45;100764.84;;;8.10;100.00
41945;BME280;63122;52.424;13.458;2023-02-21T08:34:46;100768.31;;;8.10;100.00
41945;BME280;63122;52.424;13.458;2023-02-21T08:36:45;100765.44;;;8.13;100.00
41945;BME280;63122;52.424;13.458;2023-02-21T08:38:40;100763.63;;;8.14;100.00
41945;BME280;63122;52.424;13.458;2023-02-21T08:40:35;100769.03;;;8.12;100.00
41945;BME280;63122;52.424;13.458;2023-02-21T08:42:30;100761.94;;;8.13;100.00
41945;BME280;63122;52.424;13.458;2023-02-21T08:44:26;100753.25;;;8.12;100.00
41945;BME280;63122;52.424;13.458;2023-02-21T08:46:24;100764.31;;;8.16;100.00
41945;BME280;63122;52.424;13.458;2023-02-21T08:48:19;100758.25;;;8.15;100.00
41945;BME280;63122;52.424;13.458;2023-02-21T08:50:18;100765.69;;;8.20;100.00
41945;BME280;63122;52.424;13.458;2023-02-21T08:52:14;100761.13;;;8.22;100.00
41945;BME280;63122;52.424;13.458;2023-02-21T08:54:10;100761.13;;;8.22;100.00
41945;BME280;63122;52.424;13.458;2023-02-21T08:56:06;100765.59;;;8.21;100.00
41945;BME280;63122;52.424;13.458;2023-02-21T08:58:02;100767.25;;;8.23;100.00
41945;BME280;63122;52.424;13.458;2023-02-21T08:59:57;100769.88;;;8.23;100.00
41945;BME280;63122;52.424;13.458;2023-02-21T09:01:53;100772.38;;;8.24;100.00
41945;BME280;63122;52.424;13.458;2023-02-21T09:03:49;100781.66;;;8.28;100.00
41945;BME280;63122;52.424;13.458;2023-02-21T09:05:47;100771.53;;;8.24;100.00
41945;BME280;63122;52.424;13.458;2023-02-21T09:07:42;100757.44;;;8.25;100.00
41945;BME280;63122;52.424;13.458;2023-02-21T09:09:38;100769.47;;;8.27;100.00
41945;BME280;63122;52.424;13.458;2023-02-21T09:11:33;100762.13;;;8.31;100.00
41945;BME280;63122;52.424;13.458;2023-02-21T09:13:30;100776.41;;;8.28;100.00
41945;BME280;63122;52.424;13.458;2023-02-21T09:15:25;100771.16;;;8.28;100.00
41945;BME280;63122;52.424;13.458;2023-02-21T09:17:20;100778.75;;;8.31;100.00
41945;BME280;63122;52.424;13.458;2023-02-21T09:19:16;100781.50;;;8.30;100.00
41945;BME280;63122;52.424;13.458;2023-02-21T09:21:15;100780.00;;;8.27;100.00
41945;BME280;63122;52.424;13.458;2023-02-21T09:23:10;100783.31;;;8.29;100.00
41945;BME280;63122;52.424;13.458;2023-02-21T09:25:07;100789.38;;;8.30;100.00
41945;BME280;63122;52.424;13.458;2023-02-21T09:27:04;100794.53;;;8.31;100.00
41945;BME280;63122;52.424;13.458;2023-02-21T09:29:00;100786.06;;;8.28;100.00
41945;BME280;63122;52.424;13.458;2023-02-21T09:30:54;100790.94;;;8.32;100.00
41945;BME280;63122;52.424;13.458;2023-02-21T09:32:50;100790.94;;;8.32;100.00
41945;BME280;63122;52.424;13.458;2023-02-21T09:34:46;100793.56;;;8.32;100.00
41945;BME280;63122;52.424;13.458;2023-02-21T09:36:43;100787.63;;;8.40;100.00
41945;BME280;63122;52.424;13.458;2023-02-21T09:38:40;100793.88;;;8.39;100.00
41945;BME280;63122;52.424;13.458;2023-02-21T09:40:39;100794.69;;;8.40;100.00
41945;BME280;63122;52.424;13.458;2023-02-21T09:42:36;100806.16;;;8.39;100.00
41945;BME280;63122;52.424;13.458;2023-02-21T09:44:33;100795.66;;;8.39;100.00
41945;BME280;63122;52.424;13.458;2023-02-21T09:46:32;100809.22;;;8.44;100.00
41945;BME280;63122;52.424;13.458;2023-02-21T09:48:28;100802.28;;;8.43;100.00
41945;BME280;63122;52.424;13.458;2023-02-21T09:50:26;100803.84;;;8.45;100.00
41945;BME280;63122;52.424;13.458;2023-02-21T09:52:30;100794.47;;;8.53;100.00
41945;BME280;63122;52.424;13.458;2023-02-21T09:54:31;100801.66;;;8.50;100.00
41945;BME280;63122;52.424;13.458;2023-02-21T09:56:28;100794.19;;;8.56;100.00
41945;BME280;63122;52.424;13.458;2023-02-21T09:58:26;100790.59;;;8.57;100.00
41945;BME280;63122;52.424;13.458;2023-02-21T10:00:23;100805.28;;;8.59;100.00
41945;BME280;63122;52.424;13.458;2023-02-21T10:02:33;100818.44;;;8.59;100.00
41945;BME280;63122;52.424;13.458;2023-02-21T10:04:51;100812.22;;;8.70;100.00
41945;BME280;63122;52.424;13.458;2023-02-21T10:06:53;100810.28;;;8.72;100.00
41945;BME280;63122;52.424;13.458;2023-02-21T10:08:58;100808.75;;;8.70;100.00
41945;BME280;63122;52.424;13.458;2023-02-21T10:11:01;100810.72;;;8.77;100.00
41945;BME280;63122;52.424;13.458;2023-02-21T10:13:07;100800.47;;;8.84;100.00
41945;BME280;63122;52.424;13.458;2023-02-21T10:15:19;100800.34;;;8.86;100.00
41945;BME280;63122;52.424;13.458;2023-02-21T10:17:20;100799.94;;;8.90;100.00
41945;BME280;63122;52.424;13.458;2023-02-21T10:19:20;100806.44;;;8.96;100.00
41945;BME280;63122;52.424;13.458;2023-02-21T10:21:24;100814.06;;;8.89;100.00
41945;BME280;63122;52.424;13.458;2023-02-21T10:23:24;100812.81;;;8.93;100.00
41945;BME280;63122;52.424;13.458;2023-02-21T10:25:28;100811.16;;;9.12;100.00
41945;BME280;63122;52.424;13.458;2023-02-21T10:27:25;100808.81;;;9.09;100.00
41945;BME280;63122;52.424;13.458;2023-02-21T10:29:23;100810.88;;;9.05;100.00